Time;durP1;ratioP1;P1;durP2;ratioP2;P2;SDS_P1;SDS_P2;PMS_P1;PMS_P2;Temp;Humidity;BMP_temperature;BMP_pressure;BME280_temperature;BME280_humidity;BME280_pressure;Samples;Min_cycle;Max_cycle;Signal;HPM_P1;HPM_P2
2022/03/21 00:01:45;;;;;;;;;;;;;;;3.03;36.62;103409.19;1621967;87;20763;-71
2022/03/21 00:04:11;;;;;;;;;;;;;;;2.99;36.59;103409.40;1646923;87;20580;-71
2022/03/21 00:06:37;;;;;;;;;;;;;;;2.96;36.70;103402.83;1620570;87;20304;-71
2022/03/21 00:09:04;;;;;;;;;;;;;;;2.93;36.71;103404.31;1644853;86;20204;-71
2022/03/21 00:11:31;;;;;;;;;;;;;;;2.92;36.72;103397.04;1643967;86;20291;-71
2022/03/21 00:13:57;;;;;;;;;;;;;;;2.91;36.68;103402.06;1640921;87;20497;-71
2022/03/21 00:16:23;;;;;;;;;;;;;;;2.89;36.76;103394.70;1634822;87;20152;-72
2022/03/21 00:18:49;;;;;;;;;;;;;;;2.86;36.80;103399.23;1648580;87;20226;-71
2022/03/21 00:21:15;;;;;;;;;;;;;;;2.84;36.81;103403.37;1651029;85;20288;-72
2022/03/21 00:23:41;;;;;;;;;;;;;;;2.81;36.86;103395.91;1661309;85;21167;-72
2022/03/21 00:26:07;;;;;;;;;;;;;;;2.80;36.87;103405.25;1643115;87;20352;-71
2022/03/21 00:28:33;;;;;;;;;;;;;;;2.77;36.89;103402.91;1648998;87;20269;-72
2022/03/21 00:31:00;;;;;;;;;;;;;;;2.75;36.94;103401.53;1647812;85;20210;-71
2022/03/21 00:33:26;;;;;;;;;;;;;;;2.69;36.90;103396.45;1627487;87;20193;-71
2022/03/21 00:35:52;;;;;;;;;;;;;;;2.61;36.96;103396.86;1655941;85;20147;-71
2022/03/21 00:38:19;;;;;;;;;;;;;;;2.57;36.99;103403.88;1658165;85;20298;-71
2022/03/21 00:40:46;;;;;;;;;;;;;;;2.54;37.03;103396.42;1661184;85;20104;-72
2022/03/21 00:43:14;;;;;;;;;;;;;;;2.50;37.04;103395.75;1664095;85;20128;-72
2022/03/21 00:45:40;;;;;;;;;;;;;;;2.46;37.07;103393.80;1668632;85;20137;-71
2022/03/21 00:48:06;;;;;;;;;;;;;;;2.39;37.09;103394.20;1677796;84;20194;-71
2022/03/21 00:50:32;;;;;;;;;;;;;;;2.33;37.06;103403.64;1659891;85;20277;-71
2022/03/21 00:52:58;;;;;;;;;;;;;;;2.29;37.14;103398.73;1658611;85;20170;-72
2022/03/21 00:55:26;;;;;;;;;;;;;;;2.25;37.21;103404.44;1661391;85;20368;-71
2022/03/21 00:57:52;;;;;;;;;;;;;;;2.17;37.11;103397.08;1668864;84;20199;-71
2022/03/21 01:00:21;;;;;;;;;;;;;;;2.10;37.28;103393.26;1659323;85;20231;-71
2022/03/21 01:02:48;;;;;;;;;;;;;;;2.03;37.30;103399.19;1678000;85;20190;-71
2022/03/21 01:05:14;;;;;;;;;;;;;;;1.95;37.31;103401.25;1661059;85;20140;-71
2022/03/21 01:07:41;;;;;;;;;;;;;;;1.85;37.39;103406.16;1660906;85;20156;-71
2022/03/21 01:10:10;;;;;;;;;;;;;;;1.77;37.38;103405.17;1659101;85;20484;-72
2022/03/21 01:12:36;;;;;;;;;;;;;;;1.67;37.54;103407.52;1671609;85;20192;-72
2022/03/21 01:15:03;;;;;;;;;;;;;;;1.59;37.46;103401.03;1659362;85;20195;-71
2022/03/21 01:17:29;;;;;;;;;;;;;;;1.52;37.56;103402.33;1677185;84;20099;-71
2022/03/21 01:19:55;;;;;;;;;;;;;;;1.45;37.65;103395.06;1656658;85;20177;-71
2022/03/21 01:22:21;;;;;;;;;;;;;;;1.38;37.51;103393.28;1678568;84;20125;-71
2022/03/21 01:24:47;;;;;;;;;;;;;;;1.29;37.66;103395.72;1668890;85;20261;-71
2022/03/21 01:27:13;;;;;;;;;;;;;;;1.24;37.77;103395.80;1661228;84;20170;-72
2022/03/21 01:29:39;;;;;;;;;;;;;;;1.19;37.73;103392.06;1675606;85;20176;-71
2022/03/21 01:32:05;;;;;;;;;;;;;;;1.16;37.83;103398.62;1664614;85;20590;-71
2022/03/21 01:34:31;;;;;;;;;;;;;;;1.13;37.96;103400.96;1659663;85;20182;-71
2022/03/21 01:36:57;;;;;;;;;;;;;;;1.11;37.90;103399.58;1660604;85;20203;-71
2022/03/21 01:39:23;;;;;;;;;;;;;;;1.10;37.94;103399.09;1658823;85;20174;-72
2022/03/21 01:41:50;;;;;;;;;;;;;;;1.09;37.97;103399.87;1658622;85;20235;-71
2022/03/21 01:44:17;;;;;;;;;;;;;;;1.08;37.91;103399.77;1685385;85;20160;-71
2022/03/21 01:46:44;;;;;;;;;;;;;;;1.04;38.01;103397.40;1681158;84;20118;-71
2022/03/21 01:49:10;;;;;;;;;;;;;;;1.00;38.01;103398.01;1688809;84;20532;-71
2022/03/21 01:51:37;;;;;;;;;;;;;;;0.94;37.99;103397.59;1688840;84;20118;-72
2022/03/21 01:56:48;;;;;;;;;;;;;;;0.81;38.04;103396.27;1688984;85;20113;-71
2022/03/21 01:59:15;;;;;;;;;;;;;;;0.70;38.09;103393.37;1688781;85;20085;-71
2022/03/21 02:01:42;;;;;;;;;;;;;;;0.61;38.03;103389.41;1669321;84;20108;-71
2022/03/21 02:04:08;;;;;;;;;;;;;;;0.50;38.18;103391.63;1662749;85;20107;-71
2022/03/21 02:06:35;;;;;;;;;;;;;;;0.43;38.33;103391.98;1660893;85;20128;-71
2022/03/21 02:09:03;;;;;;;;;;;;;;;0.34;38.19;103382.44;1658637;85;20128;-71
2022/03/21 02:11:29;;;;;;;;;;;;;;;0.27;38.20;103386.59;1648724;86;20125;-71
2022/03/21 02:13:57;;;;;;;;;;;;;;;0.19;38.21;103383.52;1663276;85;20108;-71
2022/03/21 02:16:24;;;;;;;;;;;;;;;0.13;38.41;103380.92;1673815;85;20126;-71
2022/03/21 02:18:50;;;;;;;;;;;;;;;0.06;38.40;103383.80;1650575;84;20120;-71
2022/03/21 02:21:52;;;;;;;;;;;;;;;-0.01;38.52;103380.86;1651130;85;20172;-71
2022/03/21 02:24:23;;;;;;;;;;;;;;;-0.05;38.60;103383.95;1660057;85;20127;-71
2022/03/21 02:26:50;;;;;;;;;;;;;;;-0.11;38.53;103375.00;1664524;85;20185;-71
2022/03/21 02:29:16;;;;;;;;;;;;;;;-0.20;38.57;103373.95;1686877;84;20201;-71
2022/03/21 02:31:43;;;;;;;;;;;;;;;-0.25;38.68;103376.55;1674659;84;20602;-71
2022/03/21 02:34:09;;;;;;;;;;;;;;;-0.29;38.59;103378.38;1667587;85;20151;-71
2022/03/21 02:36:36;;;;;;;;;;;;;;;-0.34;38.69;103373.34;1684004;85;20229;-71
2022/03/21 02:39:02;;;;;;;;;;;;;;;-0.38;38.75;103372.23;1687983;84;20136;-71
2022/03/21 02:41:28;;;;;;;;;;;;;;;-0.40;38.81;103372.52;1662676;84;20258;-71
2022/03/21 02:43:56;;;;;;;;;;;;;;;-0.42;38.78;103372.79;1652936;85;20202;-71
2022/03/21 02:46:23;;;;;;;;;;;;;;;-0.42;38.94;103369.36;1666667;85;20351;-71
2022/03/21 02:48:50;;;;;;;;;;;;;;;-0.42;38.94;103365.16;1687931;84;20129;-72
2022/03/21 02:51:18;;;;;;;;;;;;;;;-0.41;38.99;103372.02;1666959;84;20144;-71
2022/03/21 02:53:45;;;;;;;;;;;;;;;-0.41;39.08;103365.66;1661603;85;20140;-71
2022/03/21 02:56:13;;;;;;;;;;;;;;;-0.42;39.08;103366.44;1643520;85;20196;-71
2022/03/21 02:58:38;;;;;;;;;;;;;;;-0.43;39.13;103366.32;1659234;85;20254;-71
2022/03/21 03:01:12;;;;;;;;;;;;;;;-0.43;39.03;103367.59;1666999;85;20155;-71
2022/03/21 03:03:39;;;;;;;;;;;;;;;-0.45;39.17;103364.94;1664778;85;20128;-71
2022/03/21 03:06:05;;;;;;;;;;;;;;;-0.44;39.18;103365.83;1660988;85;20174;-71
2022/03/21 03:08:32;;;;;;;;;;;;;;;-0.41;39.24;103368.59;1675698;85;20661;-71
2022/03/21 03:10:58;;;;;;;;;;;;;;;-0.38;39.29;103371.36;1688853;84;20093;-71
2022/03/21 03:13:24;;;;;;;;;;;;;;;-0.37;39.33;103366.77;1688901;84;20098;-71
2022/03/21 03:15:50;;;;;;;;;;;;;;;-0.36;39.32;103371.97;1684481;84;20516;-71
2022/03/21 03:18:16;;;;;;;;;;;;;;;-0.35;39.36;103371.19;1675905;84;20267;-71
2022/03/21 03:20:48;;;;;;;;;;;;;;;-0.31;39.45;103373.57;1673031;85;20217;-71
2022/03/21 03:23:14;;;;;;;;;;;;;;;-0.27;39.40;103378.48;1659292;85;20364;-71
2022/03/21 03:25:39;;;;;;;;;;;;;;;-0.26;39.33;103375.17;1669188;85;20229;-71
2022/03/21 03:28:06;;;;;;;;;;;;;;;-0.26;39.29;103382.41;1686152;84;20153;-71
2022/03/21 03:30:34;;;;;;;;;;;;;;;-0.28;39.40;103377.99;1676922;84;20198;-71
2022/03/21 03:33:02;;;;;;;;;;;;;;;-0.27;39.47;103382.30;1666955;84;306904;-72
2022/03/21 03:35:28;;;;;;;;;;;;;;;-0.22;39.57;103375.89;1669724;84;20208;-71
2022/03/21 03:37:54;;;;;;;;;;;;;;;-0.17;39.57;103377.11;1658880;85;20190;-71
2022/03/21 03:40:21;;;;;;;;;;;;;;;-0.15;39.64;103372.63;1661300;84;615458;-71
2022/03/21 03:42:47;;;;;;;;;;;;;;;-0.12;39.74;103368.16;1636646;87;20123;-71
2022/03/21 03:45:13;;;;;;;;;;;;;;;-0.08;39.69;103373.56;1682439;85;20229;-71
2022/03/21 03:47:41;;;;;;;;;;;;;;;-0.06;39.63;103374.56;1664376;85;20160;-71
2022/03/21 03:50:08;;;;;;;;;;;;;;;-0.05;39.66;103371.63;1664474;85;20152;-71
2022/03/21 03:52:34;;;;;;;;;;;;;;;-0.07;39.74;103366.44;1663410;86;20156;-71
2022/03/21 03:54:59;;;;;;;;;;;;;;;-0.05;39.70;103362.73;1625673;87;20111;-71
2022/03/21 03:57:26;;;;;;;;;;;;;;;-0.04;39.81;103368.31;1616449;86;20138;-72
2022/03/21 03:59:52;;;;;;;;;;;;;;;-0.03;39.83;103365.87;1616422;87;20099;-71
2022/03/21 04:02:17;;;;;;;;;;;;;;;-0.01;39.84;103357.09;1627929;86;20171;-71
2022/03/21 04:04:43;;;;;;;;;;;;;;;0.00;39.87;103363.94;1638328;87;20177;-71
2022/03/21 04:07:09;;;;;;;;;;;;;;;0.03;39.90;103369.21;1638525;87;20146;-71
2022/03/21 04:09:35;;;;;;;;;;;;;;;0.03;39.93;103361.58;1616474;87;20202;-71
2022/03/21 04:12:02;;;;;;;;;;;;;;;0.06;40.02;103364.73;1629187;86;20245;-71
2022/03/21 04:14:29;;;;;;;;;;;;;;;0.07;39.93;103361.41;1614763;87;20129;-71
2022/03/21 04:16:55;;;;;;;;;;;;;;;0.08;40.05;103364.45;1610378;88;20145;-71
2022/03/21 04:19:21;;;;;;;;;;;;;;;0.08;39.98;103369.54;1619962;87;20693;-71
2022/03/21 04:21:46;;;;;;;;;;;;;;;0.07;40.01;103368.66;1616994;87;20162;-71
2022/03/21 04:24:12;;;;;;;;;;;;;;;0.06;40.14;103369.81;1615259;87;20205;-72
2022/03/21 04:26:38;;;;;;;;;;;;;;;0.05;40.14;103374.02;1624004;86;20197;-71
2022/03/21 04:29:04;;;;;;;;;;;;;;;0.06;40.20;103374.52;1655432;86;20214;-71
2022/03/21 04:31:32;;;;;;;;;;;;;;;0.06;40.16;103374.52;1635931;87;20230;-72
2022/03/21 04:33:59;;;;;;;;;;;;;;;0.06;40.17;103366.89;1663838;85;20166;-72
2022/03/21 04:36:25;;;;;;;;;;;;;;;0.06;40.19;103374.91;1635637;87;20202;-71
2022/03/21 04:38:51;;;;;;;;;;;;;;;0.05;40.21;103373.13;1664450;85;20148;-71
2022/03/21 04:41:17;;;;;;;;;;;;;;;0.05;40.21;103372.75;1661753;86;20210;-72
2022/03/21 04:43:46;;;;;;;;;;;;;;;0.04;40.34;103373.91;1625101;87;20499;-71
2022/03/21 04:46:12;;;;;;;;;;;;;;;0.02;40.31;103377.62;1593254;89;20191;-71
2022/03/21 04:48:37;;;;;;;;;;;;;;;-0.01;40.29;103378.70;1616980;88;20279;-71
2022/03/21 04:51:04;;;;;;;;;;;;;;;0.00;40.38;103380.47;1635098;87;20306;-71
2022/03/21 04:53:29;;;;;;;;;;;;;;;-0.01;40.37;103385.95;1635089;86;20281;-71
2022/03/21 04:55:55;;;;;;;;;;;;;;;-0.02;40.24;103386.72;1636223;87;20253;-71
2022/03/21 04:58:22;;;;;;;;;;;;;;;-0.05;40.29;103382.69;1625805;85;20198;-71
2022/03/21 05:00:49;;;;;;;;;;;;;;;-0.07;40.28;103382.08;1626944;84;20222;-71
2022/03/21 05:03:15;;;;;;;;;;;;;;;-0.09;40.47;103387.05;1655129;84;20096;-71
2022/03/21 05:05:40;;;;;;;;;;;;;;;-0.09;40.57;103389.98;1635885;85;20190;-71
2022/03/21 05:08:06;;;;;;;;;;;;;;;-0.10;40.45;103391.65;1663091;84;407521;-71
2022/03/21 05:10:32;;;;;;;;;;;;;;;-0.10;40.55;103390.38;1678568;85;20848;-71
2022/03/21 05:12:58;;;;;;;;;;;;;;;-0.12;40.65;103395.73;1649618;85;20226;-71
2022/03/21 05:15:25;;;;;;;;;;;;;;;-0.14;40.69;103390.93;1634229;86;20254;-71
2022/03/21 05:17:55;;;;;;;;;;;;;;;-0.13;40.70;103396.52;1679178;85;20209;-71
2022/03/21 05:20:19;;;;;;;;;;;;;;;-0.13;40.76;103401.98;1657876;85;20148;-71
2022/03/21 05:30:57;;;;;;;;;;;;;;;-0.13;40.75;103399.44;1635043;86;20111;-71
2022/03/21 05:30:59;;;;;;;;;;;;;;;-0.12;40.91;103405.02;1662903;86;20135;-72
2022/03/21 05:36:08;;;;;;;;;;;;;;;-0.06;40.96;103408.89;1676210;85;20163;-71
2022/03/21 05:38:37;;;;;;;;;;;;;;;-0.02;41.26;103403.25;1636291;86;20130;-71
2022/03/21 05:41:03;;;;;;;;;;;;;;;0.05;41.11;103404.55;1662418;85;20197;-70
2022/03/21 05:43:31;;;;;;;;;;;;;;;0.18;41.31;103405.03;1650455;85;20150;-70
2022/03/21 05:45:59;;;;;;;;;;;;;;;0.27;41.31;103407.84;1669593;84;20123;-70
2022/03/21 05:51:10;;;;;;;;;;;;;;;0.55;41.38;103405.92;1661364;85;20142;-70
2022/03/21 05:53:38;;;;;;;;;;;;;;;0.72;41.32;103412.19;1673024;84;20131;-70
2022/03/21 05:56:04;;;;;;;;;;;;;;;0.84;41.39;103407.94;1669981;85;20166;-72
2022/03/21 05:58:30;;;;;;;;;;;;;;;0.95;41.41;103407.89;1672429;85;20491;-72
2022/03/21 06:00:56;;;;;;;;;;;;;;;1.08;41.43;103410.84;1661359;85;20208;-72
2022/03/21 06:03:22;;;;;;;;;;;;;;;1.20;41.50;103411.67;1644385;85;20217;-72
2022/03/21 06:05:49;;;;;;;;;;;;;;;1.38;41.50;103411.12;1639364;86;21074;-72
2022/03/21 06:08:14;;;;;;;;;;;;;;;1.61;41.60;103413.49;1623692;87;20136;-72
2022/03/21 06:10:40;;;;;;;;;;;;;;;1.88;41.64;103410.58;1637987;85;20828;-73
2022/03/21 06:13:07;;;;;;;;;;;;;;;2.20;41.69;103406.20;1632318;86;20152;-72
2022/03/21 06:15:33;;;;;;;;;;;;;;;2.56;41.62;103407.62;1638323;85;20122;-72
2022/03/21 06:17:59;;;;;;;;;;;;;;;2.90;41.59;103411.41;1653835;85;20173;-73
2022/03/21 06:20:27;;;;;;;;;;;;;;;3.25;41.67;103414.75;1646062;85;20184;-73
2022/03/21 06:22:52;;;;;;;;;;;;;;;3.63;41.68;103411.86;1636055;87;20102;-73
2022/03/21 06:25:18;;;;;;;;;;;;;;;4.01;41.56;103407.98;1611764;87;20152;-73
2022/03/21 06:27:44;;;;;;;;;;;;;;;4.36;41.56;103412.45;1610523;87;20201;-73
2022/03/21 06:30:11;;;;;;;;;;;;;;;4.69;41.55;103412.06;1597268;87;20089;-73
2022/03/21 06:32:37;;;;;;;;;;;;;;;5.03;41.51;103405.74;1613274;87;20196;-72
2022/03/21 06:35:04;;;;;;;;;;;;;;;5.39;41.59;103406.70;1673316;85;20132;-73
2022/03/21 06:37:31;;;;;;;;;;;;;;;5.80;41.55;103409.10;1618047;87;20109;-73
2022/03/21 06:39:57;;;;;;;;;;;;;;;6.14;41.45;103409.94;1611433;87;20119;-73
2022/03/21 06:42:23;;;;;;;;;;;;;;;6.45;41.50;103411.33;1652450;86;20604;-72
2022/03/21 06:44:50;;;;;;;;;;;;;;;6.77;41.48;103415.33;1634424;86;20212;-72
2022/03/21 06:47:17;;;;;;;;;;;;;;;7.04;41.55;103411.40;1629913;86;20110;-72
2022/03/21 06:49:43;;;;;;;;;;;;;;;7.35;41.56;103416.53;1654026;85;20124;-72
2022/03/21 06:52:09;;;;;;;;;;;;;;;7.61;41.61;103420.67;1654694;86;20128;-72
2022/03/21 06:54:35;;;;;;;;;;;;;;;7.84;41.35;103414.26;1637585;86;20165;-72
2022/03/21 06:57:01;;;;;;;;;;;;;;;8.05;41.53;103416.81;1645949;86;20138;-73
2022/03/21 06:59:29;;;;;;;;;;;;;;;8.28;41.67;103416.89;1632051;86;20091;-73
2022/03/21 07:01:58;;;;;;;;;;;;;;;8.51;41.62;103423.33;1649824;84;20152;-73
2022/03/21 07:04:25;;;;;;;;;;;;;;;8.72;41.50;103420.67;1660870;86;20152;-73
2022/03/21 07:06:51;;;;;;;;;;;;;;;9.02;41.83;103424.33;1640922;85;20166;-72
2022/03/21 07:09:17;;;;;;;;;;;;;;;9.49;41.84;103420.77;1638942;85;20202;-72
2022/03/21 07:11:43;;;;;;;;;;;;;;;9.98;41.74;103418.88;1644119;85;20190;-73
2022/03/21 07:14:09;;;;;;;;;;;;;;;10.38;41.50;103421.00;1639318;86;20127;-73
2022/03/21 07:16:35;;;;;;;;;;;;;;;10.57;41.28;103420.27;1645536;84;20455;-73
2022/03/21 07:19:01;;;;;;;;;;;;;;;10.67;41.06;103423.13;1658423;86;20208;-73
2022/03/21 07:21:27;;;;;;;;;;;;;;;10.61;41.08;103420.81;1622329;87;20229;-73
2022/03/21 07:23:52;;;;;;;;;;;;;;;10.59;41.08;103425.07;1660555;86;20591;-73
2022/03/21 07:26:18;;;;;;;;;;;;;;;10.64;41.33;103421.73;1633008;86;20185;-73
2022/03/21 07:28:44;;;;;;;;;;;;;;;10.71;41.26;103421.08;1663229;86;20179;-73
2022/03/21 07:31:11;;;;;;;;;;;;;;;10.81;41.29;103417.92;1645417;84;20773;-73
2022/03/21 07:33:38;;;;;;;;;;;;;;;11.01;41.06;103421.03;1659145;85;20163;-72
2022/03/21 07:36:05;;;;;;;;;;;;;;;11.22;41.26;103421.19;1650339;86;20180;-72
2022/03/21 07:38:31;;;;;;;;;;;;;;;11.32;41.12;103426.61;1640818;84;20171;-73
2022/03/21 07:40:57;;;;;;;;;;;;;;;11.50;41.11;103427.05;1635232;85;20142;-73
2022/03/21 07:43:26;;;;;;;;;;;;;;;11.61;41.25;103416.11;1655085;86;20349;-73
2022/03/21 07:48:36;;;;;;;;;;;;;;;11.79;41.32;103419.61;1611778;87;20364;-72
2022/03/21 07:51:04;;;;;;;;;;;;;;;11.96;41.24;103415.23;1605264;87;20227;-73
2022/03/21 07:53:33;;;;;;;;;;;;;;;12.02;41.20;103414.05;1602445;86;20506;-73
2022/03/21 07:56:00;;;;;;;;;;;;;;;11.99;41.05;103415.27;1570452;89;20473;-72
2022/03/21 07:58:27;;;;;;;;;;;;;;;11.91;40.63;103415.12;1603397;87;20467;-72
2022/03/21 08:01:02;;;;;;;;;;;;;;;11.91;40.79;103416.43;1639144;86;20443;-73
2022/03/21 08:03:26;;;;;;;;;;;;;;;11.98;40.83;103415.70;1639517;86;20444;-73
2022/03/21 08:05:53;;;;;;;;;;;;;;;12.05;40.86;103412.83;1637423;85;20111;-73
2022/03/21 08:08:20;;;;;;;;;;;;;;;12.13;40.45;103413.88;1659181;86;20593;-73
2022/03/21 08:10:46;;;;;;;;;;;;;;;12.17;40.92;103416.99;1626276;86;20845;-73
2022/03/21 08:13:17;;;;;;;;;;;;;;;12.14;41.30;103412.61;1608663;86;20512;-73
2022/03/21 08:15:41;;;;;;;;;;;;;;;12.03;40.68;103410.20;1613430;86;20414;-73
2022/03/21 08:18:07;;;;;;;;;;;;;;;11.94;40.77;103416.50;1608596;87;20418;-73
2022/03/21 08:20:34;;;;;;;;;;;;;;;11.86;40.87;103417.62;1590821;87;20418;-73
2022/03/21 08:23:01;;;;;;;;;;;;;;;11.79;40.63;103417.02;1612162;87;20118;-73
2022/03/21 08:25:27;;;;;;;;;;;;;;;11.80;40.54;103419.19;1615925;88;20544;-73
2022/03/21 08:27:53;;;;;;;;;;;;;;;11.85;40.19;103413.27;1601166;88;20540;-73
2022/03/21 08:30:19;;;;;;;;;;;;;;;11.86;40.09;103417.62;1600650;88;20857;-73
2022/03/21 08:32:46;;;;;;;;;;;;;;;11.89;40.00;103415.09;1658847;86;20803;-73
2022/03/21 08:35:12;;;;;;;;;;;;;;;11.76;39.92;103413.44;1656469;84;20541;-73
2022/03/21 08:37:38;;;;;;;;;;;;;;;11.70;40.00;103411.58;1636185;87;20533;-73
2022/03/21 08:40:04;;;;;;;;;;;;;;;11.66;39.90;103409.74;1645584;86;20228;-73
2022/03/21 08:42:30;;;;;;;;;;;;;;;11.63;39.84;103414.86;1645226;84;20628;-73
2022/03/21 08:44:56;;;;;;;;;;;;;;;11.55;39.55;103415.96;1623586;85;20591;-73
2022/03/21 08:47:25;;;;;;;;;;;;;;;11.48;39.20;103404.98;1646571;84;20632;-73
2022/03/21 08:49:51;;;;;;;;;;;;;;;11.41;39.28;103409.59;1645756;86;20350;-73
2022/03/21 08:52:19;;;;;;;;;;;;;;;11.31;39.51;103402.84;1623184;86;20226;-73
2022/03/21 08:54:45;;;;;;;;;;;;;;;11.24;39.22;103401.38;1637361;86;20590;-73
2022/03/21 08:57:10;;;;;;;;;;;;;;;11.18;38.72;103399.05;1639958;86;20236;-73
2022/03/21 08:59:36;;;;;;;;;;;;;;;11.07;39.09;103403.06;1632969;86;20270;-73
2022/03/21 09:02:04;;;;;;;;;;;;;;;10.95;38.88;103398.02;1656553;86;20262;-73
2022/03/21 09:04:29;;;;;;;;;;;;;;;10.84;38.77;103397.30;1643671;84;20398;-73
2022/03/21 09:06:55;;;;;;;;;;;;;;;10.74;38.76;103391.41;1624478;87;20233;-73
2022/03/21 09:09:21;;;;;;;;;;;;;;;10.65;38.74;103385.55;1620389;87;20228;-73
2022/03/21 09:11:47;;;;;;;;;;;;;;;10.66;38.36;103391.19;1661139;85;20209;-73
2022/03/21 09:14:14;;;;;;;;;;;;;;;10.59;38.46;103390.14;1618732;86;20373;-73
2022/03/21 09:16:42;;;;;;;;;;;;;;;10.61;38.33;103377.25;1636542;86;20151;-73
2022/03/21 09:19:09;;;;;;;;;;;;;;;10.64;38.26;103390.27;1639458;86;20669;-73
2022/03/21 09:21:35;;;;;;;;;;;;;;;10.60;37.82;103382.84;1654298;85;20358;-73
2022/03/21 09:24:02;;;;;;;;;;;;;;;10.60;37.72;103380.25;1648570;84;20227;-73
2022/03/21 09:26:28;;;;;;;;;;;;;;;10.58;37.50;103376.74;1652317;86;20189;-73
2022/03/21 09:28:59;;;;;;;;;;;;;;;10.58;37.11;103372.86;1629228;84;20221;-73
2022/03/21 09:31:21;;;;;;;;;;;;;;;10.60;36.39;103370.31;1615050;86;20190;-73
2022/03/21 09:33:47;;;;;;;;;;;;;;;10.63;36.92;103373.41;1636484;85;20241;-73
2022/03/21 09:36:14;;;;;;;;;;;;;;;10.61;36.90;103383.30;1627188;86;20259;-73
2022/03/21 09:38:41;;;;;;;;;;;;;;;10.59;36.97;103377.62;1636444;84;20451;-73
2022/03/21 09:41:13;;;;;;;;;;;;;;;10.64;36.81;103372.58;1635347;86;20107;-73
2022/03/21 09:43:37;;;;;;;;;;;;;;;10.70;36.77;103375.33;1630512;85;20478;-73
2022/03/21 09:46:04;;;;;;;;;;;;;;;10.76;36.49;103388.03;1623476;84;20135;-73
2022/03/21 09:48:31;;;;;;;;;;;;;;;10.75;36.22;103381.52;1632139;86;20112;-73
2022/03/21 09:50:58;;;;;;;;;;;;;;;10.74;36.18;103375.87;1587023;89;20180;-73
2022/03/21 09:53:25;;;;;;;;;;;;;;;10.75;35.78;103373.33;1673615;85;20210;-73
2022/03/21 09:55:52;;;;;;;;;;;;;;;10.75;35.50;103368.16;1646673;85;20230;-73
2022/03/21 09:58:20;;;;;;;;;;;;;;;10.78;35.63;103368.23;1651166;85;20131;-73
2022/03/21 10:00:46;;;;;;;;;;;;;;;10.78;35.59;103363.48;1633932;86;20414;-73
2022/03/21 10:03:12;;;;;;;;;;;;;;;10.85;35.85;103366.70;1639767;86;20247;-73
2022/03/21 10:05:41;;;;;;;;;;;;;;;10.93;35.57;103354.38;1649987;86;20246;-73
2022/03/21 10:08:15;;;;;;;;;;;;;;;11.02;35.61;103358.92;1657027;86;20135;-73
2022/03/21 10:11:03;;;;;;;;;;;;;;;11.08;34.98;103354.33;1654809;85;20534;-73
2022/03/21 10:13:31;;;;;;;;;;;;;;;11.14;35.31;103348.02;1600309;88;20185;-73
2022/03/21 10:16:15;;;;;;;;;;;;;;;11.22;35.33;103351.25;1581018;89;20152;-73
2022/03/21 10:19:00;;;;;;;;;;;;;;;11.30;35.30;103351.45;1615623;87;20431;-73
2022/03/21 10:21:26;;;;;;;;;;;;;;;11.38;35.07;103343.86;1619478;87;20124;-72
2022/03/21 10:24:10;;;;;;;;;;;;;;;11.40;35.23;103350.84;1613243;87;20183;-72
2022/03/21 10:26:41;;;;;;;;;;;;;;;11.46;35.16;103336.70;1605901;87;20099;-72
2022/03/21 10:29:11;;;;;;;;;;;;;;;11.51;35.18;103344.58;1619060;86;320366;-73
2022/03/21 10:31:53;;;;;;;;;;;;;;;11.51;35.19;103338.11;1635288;87;20172;-72
2022/03/21 10:34:20;;;;;;;;;;;;;;;11.55;35.07;103334.75;1622748;87;20591;-72
2022/03/21 10:37:03;;;;;;;;;;;;;;;11.62;35.04;103336.64;1597576;89;20216;-72
2022/03/21 10:39:32;;;;;;;;;;;;;;;11.67;34.78;103336.33;1596595;89;20612;-73
2022/03/21 10:42:03;;;;;;;;;;;;;;;11.64;34.09;103328.91;1612256;88;20401;-73
2022/03/21 10:44:31;;;;;;;;;;;;;;;11.63;35.05;103329.33;1623524;86;20222;-73
2022/03/21 10:46:59;;;;;;;;;;;;;;;11.72;34.81;103329.95;1626157;86;20189;-73
2022/03/21 10:49:31;;;;;;;;;;;;;;;11.81;34.78;103328.48;1638383;84;20214;-73
2022/03/21 10:51:57;;;;;;;;;;;;;;;11.84;34.62;103331.15;1632425;86;20201;-73
2022/03/21 10:54:50;;;;;;;;;;;;;;;11.88;34.53;103326.48;1656738;86;20564;-73
2022/03/21 10:57:36;;;;;;;;;;;;;;;11.89;34.09;103319.58;1655068;84;20543;-72
2022/03/21 11:00:22;;;;;;;;;;;;;;;11.90;34.01;103321.33;1637488;86;20282;-73
2022/03/21 11:02:55;;;;;;;;;;;;;;;11.93;34.37;103320.11;1672775;84;20236;-73
2022/03/21 11:05:22;;;;;;;;;;;;;;;11.93;34.40;103314.92;1635327;85;20384;-73
2022/03/21 11:07:49;;;;;;;;;;;;;;;11.92;34.13;103313.17;1649400;85;20161;-73
2022/03/21 11:10:16;;;;;;;;;;;;;;;11.86;34.23;103317.80;1688545;85;20181;-73
2022/03/21 11:12:43;;;;;;;;;;;;;;;11.89;34.08;103321.75;1666030;83;20249;-73
2022/03/21 11:15:09;;;;;;;;;;;;;;;11.89;34.20;103313.97;1663456;85;20474;-73
2022/03/21 11:17:36;;;;;;;;;;;;;;;11.95;34.01;103311.06;1683021;83;20514;-73
2022/03/21 11:20:05;;;;;;;;;;;;;;;11.98;34.06;103318.45;1668569;84;20152;-73
2022/03/21 11:22:33;;;;;;;;;;;;;;;12.02;33.90;103311.19;1664370;84;20092;-73
2022/03/21 11:25:16;;;;;;;;;;;;;;;12.01;33.78;103302.09;1672831;84;20107;-73
2022/03/21 11:28:04;;;;;;;;;;;;;;;12.01;33.99;103309.86;1678313;84;20141;-73
2022/03/21 11:30:56;;;;;;;;;;;;;;;12.03;33.64;103298.68;1681836;83;20185;-72
2022/03/21 11:33:32;;;;;;;;;;;;;;;12.05;33.77;103298.71;1639222;86;20212;-72
2022/03/21 11:36:10;;;;;;;;;;;;;;;12.09;33.71;103298.80;1647666;85;20507;-72
2022/03/21 11:38:46;;;;;;;;;;;;;;;12.14;33.57;103297.61;1660648;85;20485;-72
2022/03/21 11:41:21;;;;;;;;;;;;;;;12.14;33.22;103289.83;1611301;86;42026;-73
2022/03/21 11:44:07;;;;;;;;;;;;;;;12.12;33.59;103290.22;1650606;85;20129;-73
2022/03/21 11:46:34;;;;;;;;;;;;;;;12.20;33.64;103286.94;1661571;84;20086;-73
2022/03/21 11:49:03;;;;;;;;;;;;;;;12.23;33.55;103273.16;1658881;84;20552;-73
2022/03/21 11:51:40;;;;;;;;;;;;;;;12.23;33.30;103271.43;1651786;85;20161;-73
2022/03/21 11:54:08;;;;;;;;;;;;;;;12.25;33.44;103268.87;1622382;87;20149;-73
2022/03/21 11:56:43;;;;;;;;;;;;;;;12.29;32.62;103260.72;1623530;87;20139;-73
2022/03/21 11:59:30;;;;;;;;;;;;;;;12.32;33.14;103251.70;1617225;87;20531;-73
2022/03/21 12:01:56;;;;;;;;;;;;;;;12.33;33.26;103254.75;1612544;87;20465;-73
2022/03/21 12:04:29;;;;;;;;;;;;;;;12.41;33.21;103259.66;1606141;87;20210;-73
2022/03/21 12:07:00;;;;;;;;;;;;;;;12.43;32.77;103249.77;1614706;87;20165;-73
2022/03/21 12:09:43;;;;;;;;;;;;;;;12.46;32.77;103243.75;1627152;87;20117;-73
2022/03/21 12:12:11;;;;;;;;;;;;;;;12.48;33.07;103238.13;1634426;87;20203;-73
2022/03/21 12:14:46;;;;;;;;;;;;;;;12.51;33.01;103232.58;1657446;85;20426;-73
2022/03/21 12:17:16;;;;;;;;;;;;;;;12.54;33.04;103236.52;1638764;85;20171;-73
2022/03/21 12:19:54;;;;;;;;;;;;;;;12.59;32.90;103232.72;1651481;85;20138;-73
2022/03/21 12:22:43;;;;;;;;;;;;;;;12.60;32.98;103229.27;1669838;85;20336;-73
2022/03/21 12:25:12;;;;;;;;;;;;;;;12.60;32.91;103227.97;1655590;85;20130;-73
2022/03/21 12:27:55;;;;;;;;;;;;;;;12.59;32.78;103224.92;1667456;85;20469;-73
2022/03/21 12:30:29;;;;;;;;;;;;;;;12.57;32.46;103229.22;1664288;84;20096;-73
2022/03/21 12:33:13;;;;;;;;;;;;;;;12.59;31.70;103225.80;1675652;84;20367;-72
2022/03/21 12:35:44;;;;;;;;;;;;;;;12.57;32.72;103215.81;1668346;85;20181;-71
2022/03/21 12:38:22;;;;;;;;;;;;;;;12.57;32.36;103221.43;1630727;87;20490;-71
2022/03/21 12:40:58;;;;;;;;;;;;;;;12.59;32.53;103218.44;1664859;84;20181;-70
2022/03/21 12:43:28;;;;;;;;;;;;;;;12.64;32.62;103211.60;1668188;84;20205;-70
2022/03/21 12:46:09;;;;;;;;;;;;;;;12.66;32.56;103215.10;1670270;84;20106;-70
2022/03/21 12:48:47;;;;;;;;;;;;;;;12.66;32.41;103208.61;1670722;84;20165;-70
2022/03/21 12:51:16;;;;;;;;;;;;;;;12.66;32.64;103207.73;1634657;87;20143;-69
2022/03/21 12:53:48;;;;;;;;;;;;;;;12.68;32.49;103204.31;1666041;84;20232;-70
2022/03/21 12:56:17;;;;;;;;;;;;;;;12.70;32.47;103194.84;1629968;87;20213;-70
2022/03/21 12:58:45;;;;;;;;;;;;;;;12.71;32.55;103201.77;1634572;87;20119;-70
2022/03/21 13:01:15;;;;;;;;;;;;;;;12.75;32.44;103200.11;1632421;87;20138;-70
2022/03/21 13:03:42;;;;;;;;;;;;;;;12.78;32.09;103199.73;1670748;84;20141;-70